Terminal Aerodrome Forecast
Issued by NWS Cleveland, OH

Home | Current Version | Previous Version | Graphics & Text | Print | Product List | Glossary On
Versions: 1 2 3 4 5 6 7 8 9 10 11 12 13 14
000
FTUS41 KCLE 252300
TAFTOL
TAF
KTOL 252336Z 2600/2624 23010KT P6SM OVC025
     FM260130 21007KT P6SM BKN250
     FM261500 21010G20KT P6SM BKN250
     FM262200 21007KT P6SM BKN020 OVC250=

USA.gov is the U.S. government's official web portal to all federal, state and local government web resources and services.